sensor_id;sensor_type;location;lat;lon;timestamp;P1;durP1;ratioP1;P2;durP2;ratioP2
76597;SDS011;65486;53.144;18.134;2023-10-31T00:00:50;37.20;;;18.30;;
76597;SDS011;65486;53.144;18.134;2023-10-31T00:03:31;27.60;;;14.80;;
76597;SDS011;65486;53.144;18.134;2023-10-31T00:05:57;29.80;;;16.30;;
76597;SDS011;65486;53.144;18.134;2023-10-31T00:08:24;23.60;;;13.70;;
76597;SDS011;65486;53.144;18.134;2023-10-31T00:10:52;25.10;;;14.30;;
76597;SDS011;65486;53.144;18.134;2023-10-31T00:13:23;23.70;;;13.10;;
76597;SDS011;65486;53.144;18.134;2023-10-31T00:15:50;23.30;;;13.10;;
76597;SDS011;65486;53.144;18.134;2023-10-31T00:18:18;24.00;;;13.10;;
76597;SDS011;65486;53.144;18.134;2023-10-31T00:20:46;23.10;;;12.90;;
76597;SDS011;65486;53.144;18.134;2023-10-31T00:23:15;26.50;;;15.60;;
76597;SDS011;65486;53.144;18.134;2023-10-31T00:25:45;26.20;;;12.90;;
76597;SDS011;65486;53.144;18.134;2023-10-31T00:28:14;22.20;;;13.40;;
76597;SDS011;65486;53.144;18.134;2023-10-31T00:30:40;21.70;;;14.00;;
76597;SDS011;65486;53.144;18.134;2023-10-31T00:33:09;32.60;;;18.30;;
76597;SDS011;65486;53.144;18.134;2023-10-31T00:35:40;26.00;;;13.30;;
76597;SDS011;65486;53.144;18.134;2023-10-31T00:38:08;27.40;;;13.40;;
76597;SDS011;65486;53.144;18.134;2023-10-31T00:40:39;24.10;;;13.90;;
76597;SDS011;65486;53.144;18.134;2023-10-31T00:43:06;27.60;;;14.80;;
76597;SDS011;65486;53.144;18.134;2023-10-31T00:45:35;25.00;;;13.70;;
76597;SDS011;65486;53.144;18.134;2023-10-31T00:48:03;20.40;;;9.90;;
76597;SDS011;65486;53.144;18.134;2023-10-31T00:50:32;23.00;;;12.20;;
76597;SDS011;65486;53.144;18.134;2023-10-31T00:53:00;27.30;;;13.70;;
76597;SDS011;65486;53.144;18.134;2023-10-31T00:55:26;24.00;;;13.90;;
76597;SDS011;65486;53.144;18.134;2023-10-31T00:57:56;28.90;;;13.70;;
76597;SDS011;65486;53.144;18.134;2023-10-31T01:00:25;28.10;;;14.50;;
76597;SDS011;65486;53.144;18.134;2023-10-31T01:02:55;19.20;;;10.80;;
76597;SDS011;65486;53.144;18.134;2023-10-31T01:05:25;25.90;;;14.20;;
76597;SDS011;65486;53.144;18.134;2023-10-31T01:07:55;25.40;;;13.30;;
76597;SDS011;65486;53.144;18.134;2023-10-31T01:10:28;21.90;;;12.40;;
76597;SDS011;65486;53.144;18.134;2023-10-31T01:12:56;21.60;;;11.70;;
76597;SDS011;65486;53.144;18.134;2023-10-31T01:15:23;23.30;;;13.30;;
76597;SDS011;65486;53.144;18.134;2023-10-31T01:17:58;23.30;;;13.30;;
76597;SDS011;65486;53.144;18.134;2023-10-31T01:20:28;22.20;;;12.40;;
76597;SDS011;65486;53.144;18.134;2023-10-31T01:22:56;22.60;;;13.00;;
76597;SDS011;65486;53.144;18.134;2023-10-31T01:25:24;24.00;;;13.60;;
76597;SDS011;65486;53.144;18.134;2023-10-31T01:27:52;22.40;;;13.00;;
76597;SDS011;65486;53.144;18.134;2023-10-31T01:30:21;22.50;;;12.80;;
76597;SDS011;65486;53.144;18.134;2023-10-31T01:32:49;22.70;;;13.00;;
76597;SDS011;65486;53.144;18.134;2023-10-31T01:35:15;21.10;;;12.40;;
76597;SDS011;65486;53.144;18.134;2023-10-31T01:37:41;27.70;;;16.00;;
76597;SDS011;65486;53.144;18.134;2023-10-31T01:40:16;22.70;;;13.30;;
76597;SDS011;65486;53.144;18.134;2023-10-31T01:42:42;22.80;;;13.50;;
76597;SDS011;65486;53.144;18.134;2023-10-31T01:45:13;24.20;;;12.70;;
76597;SDS011;65486;53.144;18.134;2023-10-31T01:47:39;27.40;;;15.40;;
76597;SDS011;65486;53.144;18.134;2023-10-31T01:50:12;22.30;;;13.40;;
76597;SDS011;65486;53.144;18.134;2023-10-31T01:52:39;25.10;;;14.50;;
76597;SDS011;65486;53.144;18.134;2023-10-31T01:55:07;22.30;;;13.10;;
76597;SDS011;65486;53.144;18.134;2023-10-31T01:57:39;18.20;;;11.30;;
76597;SDS011;65486;53.144;18.134;2023-10-31T02:00:07;25.00;;;12.40;;
76597;SDS011;65486;53.144;18.134;2023-10-31T02:02:40;22.20;;;13.50;;
76597;SDS011;65486;53.144;18.134;2023-10-31T02:05:11;23.60;;;12.80;;
76597;SDS011;65486;53.144;18.134;2023-10-31T02:07:39;27.50;;;15.50;;
76597;SDS011;65486;53.144;18.134;2023-10-31T02:10:07;18.60;;;10.20;;
76597;SDS011;65486;53.144;18.134;2023-10-31T02:12:35;26.40;;;14.20;;
76597;SDS011;65486;53.144;18.134;2023-10-31T02:15:05;26.80;;;15.30;;
76597;SDS011;65486;53.144;18.134;2023-10-31T02:17:32;24.20;;;15.20;;
76597;SDS011;65486;53.144;18.134;2023-10-31T02:20:02;24.20;;;13.20;;
76597;SDS011;65486;53.144;18.134;2023-10-31T02:22:29;23.20;;;14.20;;
76597;SDS011;65486;53.144;18.134;2023-10-31T02:24:56;17.60;;;10.30;;
76597;SDS011;65486;53.144;18.134;2023-10-31T02:27:22;22.80;;;12.70;;
76597;SDS011;65486;53.144;18.134;2023-10-31T02:29:49;24.40;;;13.50;;
76597;SDS011;65486;53.144;18.134;2023-10-31T02:32:15;23.20;;;14.10;;
76597;SDS011;65486;53.144;18.134;2023-10-31T02:34:41;20.70;;;13.00;;
76597;SDS011;65486;53.144;18.134;2023-10-31T02:37:10;23.70;;;14.10;;
76597;SDS011;65486;53.144;18.134;2023-10-31T02:39:39;22.00;;;12.90;;
76597;SDS011;65486;53.144;18.134;2023-10-31T02:42:08;18.90;;;10.90;;
76597;SDS011;65486;53.144;18.134;2023-10-31T02:44:34;19.80;;;11.90;;
76597;SDS011;65486;53.144;18.134;2023-10-31T02:47:03;23.70;;;13.40;;
76597;SDS011;65486;53.144;18.134;2023-10-31T02:49:30;19.50;;;11.60;;
76597;SDS011;65486;53.144;18.134;2023-10-31T02:51:58;18.20;;;10.90;;
76597;SDS011;65486;53.144;18.134;2023-10-31T02:54:25;18.40;;;10.10;;
76597;SDS011;65486;53.144;18.134;2023-10-31T02:56:52;22.10;;;13.00;;
76597;SDS011;65486;53.144;18.134;2023-10-31T02:59:21;18.70;;;11.60;;
76597;SDS011;65486;53.144;18.134;2023-10-31T03:01:47;17.50;;;9.50;;
76597;SDS011;65486;53.144;18.134;2023-10-31T03:04:16;17.40;;;10.70;;
76597;SDS011;65486;53.144;18.134;2023-10-31T03:06:42;17.80;;;10.80;;
76597;SDS011;65486;53.144;18.134;2023-10-31T03:09:11;21.00;;;11.80;;
76597;SDS011;65486;53.144;18.134;2023-10-31T03:11:39;18.90;;;11.90;;
76597;SDS011;65486;53.144;18.134;2023-10-31T03:14:05;17.40;;;8.40;;
76597;SDS011;65486;53.144;18.134;2023-10-31T03:16:32;16.60;;;10.10;;
76597;SDS011;65486;53.144;18.134;2023-10-31T03:19:00;18.60;;;9.70;;
76597;SDS011;65486;53.144;18.134;2023-10-31T03:21:26;21.10;;;12.00;;
76597;SDS011;65486;53.144;18.134;2023-10-31T03:23:52;15.70;;;10.00;;
76597;SDS011;65486;53.144;18.134;2023-10-31T03:26:21;20.60;;;9.90;;
76597;SDS011;65486;53.144;18.134;2023-10-31T03:28:48;17.10;;;9.00;;
76597;SDS011;65486;53.144;18.134;2023-10-31T03:31:16;15.00;;;8.60;;
76597;SDS011;65486;53.144;18.134;2023-10-31T03:33:42;18.50;;;10.00;;
76597;SDS011;65486;53.144;18.134;2023-10-31T03:36:12;18.70;;;8.90;;
76597;SDS011;65486;53.144;18.134;2023-10-31T03:38:39;15.00;;;9.30;;
76597;SDS011;65486;53.144;18.134;2023-10-31T03:41:05;15.20;;;7.60;;
76597;SDS011;65486;53.144;18.134;2023-10-31T03:43:31;14.60;;;8.10;;
76597;SDS011;65486;53.144;18.134;2023-10-31T03:45:58;16.40;;;8.90;;
76597;SDS011;65486;53.144;18.134;2023-10-31T03:48:27;16.70;;;9.40;;
76597;SDS011;65486;53.144;18.134;2023-10-31T03:50:53;16.30;;;8.30;;
76597;SDS011;65486;53.144;18.134;2023-10-31T03:53:21;17.10;;;8.20;;
76597;SDS011;65486;53.144;18.134;2023-10-31T03:55:49;19.70;;;8.50;;
76597;SDS011;65486;53.144;18.134;2023-10-31T03:58:18;16.30;;;10.00;;
76597;SDS011;65486;53.144;18.134;2023-10-31T04:00:44;12.80;;;7.20;;
76597;SDS011;65486;53.144;18.134;2023-10-31T04:03:12;17.10;;;9.10;;
76597;SDS011;65486;53.144;18.134;2023-10-31T04:05:38;16.10;;;8.80;;
76597;SDS011;65486;53.144;18.134;2023-10-31T04:08:05;12.10;;;7.30;;
76597;SDS011;65486;53.144;18.134;2023-10-31T04:10:31;11.90;;;6.40;;
76597;SDS011;65486;53.144;18.134;2023-10-31T04:13:00;15.30;;;8.50;;
76597;SDS011;65486;53.144;18.134;2023-10-31T04:15:27;18.00;;;7.20;;
76597;SDS011;65486;53.144;18.134;2023-10-31T04:17:53;8.50;;;4.90;;
76597;SDS011;65486;53.144;18.134;2023-10-31T04:20:19;12.80;;;6.50;;
76597;SDS011;65486;53.144;18.134;2023-10-31T04:22:47;12.10;;;7.60;;
76597;SDS011;65486;53.144;18.134;2023-10-31T04:25:13;14.10;;;7.40;;
76597;SDS011;65486;53.144;18.134;2023-10-31T04:27:39;14.40;;;6.60;;
76597;SDS011;65486;53.144;18.134;2023-10-31T04:30:08;10.50;;;5.90;;
76597;SDS011;65486;53.144;18.134;2023-10-31T04:32:34;11.70;;;6.90;;
76597;SDS011;65486;53.144;18.134;2023-10-31T04:35:00;12.30;;;6.20;;
76597;SDS011;65486;53.144;18.134;2023-10-31T04:37:30;13.20;;;7.50;;
76597;SDS011;65486;53.144;18.134;2023-10-31T04:40:04;16.50;;;8.00;;
76597;SDS011;65486;53.144;18.134;2023-10-31T04:42:32;11.70;;;6.50;;
76597;SDS011;65486;53.144;18.134;2023-10-31T04:45:07;13.20;;;7.20;;
76597;SDS011;65486;53.144;18.134;2023-10-31T04:47:35;12.40;;;7.30;;
76597;SDS011;65486;53.144;18.134;2023-10-31T04:50:02;12.60;;;6.60;;
76597;SDS011;65486;53.144;18.134;2023-10-31T04:52:33;15.30;;;7.00;;
76597;SDS011;65486;53.144;18.134;2023-10-31T04:54:59;11.70;;;6.90;;
76597;SDS011;65486;53.144;18.134;2023-10-31T04:57:26;14.10;;;7.20;;
76597;SDS011;65486;53.144;18.134;2023-10-31T04:59:59;11.00;;;6.20;;
76597;SDS011;65486;53.144;18.134;2023-10-31T05:02:25;8.10;;;5.00;;
76597;SDS011;65486;53.144;18.134;2023-10-31T05:04:57;12.10;;;6.90;;
76597;SDS011;65486;53.144;18.134;2023-10-31T05:07:23;12.10;;;6.30;;
76597;SDS011;65486;53.144;18.134;2023-10-31T05:09:51;14.80;;;7.20;;
76597;SDS011;65486;53.144;18.134;2023-10-31T05:12:20;13.20;;;7.00;;
76597;SDS011;65486;53.144;18.134;2023-10-31T05:14:46;14.40;;;7.00;;
76597;SDS011;65486;53.144;18.134;2023-10-31T05:17:15;14.00;;;7.10;;
76597;SDS011;65486;53.144;18.134;2023-10-31T05:19:49;12.20;;;6.70;;
76597;SDS011;65486;53.144;18.134;2023-10-31T05:22:19;13.70;;;7.10;;
76597;SDS011;65486;53.144;18.134;2023-10-31T05:24:46;14.20;;;6.50;;
76597;SDS011;65486;53.144;18.134;2023-10-31T05:27:12;13.20;;;7.20;;
76597;SDS011;65486;53.144;18.134;2023-10-31T05:29:39;8.40;;;5.00;;
76597;SDS011;65486;53.144;18.134;2023-10-31T05:32:08;10.10;;;5.70;;
76597;SDS011;65486;53.144;18.134;2023-10-31T05:34:35;11.00;;;6.40;;
76597;SDS011;65486;53.144;18.134;2023-10-31T05:37:02;13.00;;;6.80;;
76597;SDS011;65486;53.144;18.134;2023-10-31T05:39:33;10.30;;;6.00;;
76597;SDS011;65486;53.144;18.134;2023-10-31T05:42:03;10.60;;;5.20;;
76597;SDS011;65486;53.144;18.134;2023-10-31T05:44:32;10.30;;;5.30;;
76597;SDS011;65486;53.144;18.134;2023-10-31T05:46:59;11.30;;;6.20;;
76597;SDS011;65486;53.144;18.134;2023-10-31T05:49:25;13.40;;;7.10;;
76597;SDS011;65486;53.144;18.134;2023-10-31T05:51:52;11.70;;;6.90;;
76597;SDS011;65486;53.144;18.134;2023-10-31T05:54:19;9.20;;;5.80;;
76597;SDS011;65486;53.144;18.134;2023-10-31T05:56:47;12.40;;;6.30;;
76597;SDS011;65486;53.144;18.134;2023-10-31T05:59:13;11.50;;;6.80;;
76597;SDS011;65486;53.144;18.134;2023-10-31T06:01:39;10.30;;;6.10;;
76597;SDS011;65486;53.144;18.134;2023-10-31T06:04:06;11.20;;;6.90;;
76597;SDS011;65486;53.144;18.134;2023-10-31T06:06:36;11.60;;;5.80;;
76597;SDS011;65486;53.144;18.134;2023-10-31T06:09:05;11.50;;;6.30;;
76597;SDS011;65486;53.144;18.134;2023-10-31T06:11:33;13.20;;;5.60;;
76597;SDS011;65486;53.144;18.134;2023-10-31T06:14:00;10.70;;;5.90;;
76597;SDS011;65486;53.144;18.134;2023-10-31T06:16:30;10.40;;;6.20;;
76597;SDS011;65486;53.144;18.134;2023-10-31T06:18:59;9.50;;;5.40;;
76597;SDS011;65486;53.144;18.134;2023-10-31T06:21:26;11.30;;;5.80;;
76597;SDS011;65486;53.144;18.134;2023-10-31T06:23:57;11.00;;;5.80;;
76597;SDS011;65486;53.144;18.134;2023-10-31T06:26:23;12.20;;;6.00;;
76597;SDS011;65486;53.144;18.134;2023-10-31T06:28:50;10.70;;;4.40;;
76597;SDS011;65486;53.144;18.134;2023-10-31T06:31:19;12.70;;;5.30;;
76597;SDS011;65486;53.144;18.134;2023-10-31T06:33:53;11.10;;;5.70;;
76597;SDS011;65486;53.144;18.134;2023-10-31T06:36:19;13.30;;;6.20;;
76597;SDS011;65486;53.144;18.134;2023-10-31T06:38:48;13.00;;;6.30;;
76597;SDS011;65486;53.144;18.134;2023-10-31T06:41:15;13.30;;;4.80;;
76597;SDS011;65486;53.144;18.134;2023-10-31T06:43:43;11.30;;;6.00;;
76597;SDS011;65486;53.144;18.134;2023-10-31T06:46:10;11.80;;;4.60;;
76597;SDS011;65486;53.144;18.134;2023-10-31T06:48:36;12.90;;;6.00;;
76597;SDS011;65486;53.144;18.134;2023-10-31T06:51:12;10.50;;;6.00;;
76597;SDS011;65486;53.144;18.134;2023-10-31T06:53:40;8.90;;;4.10;;
76597;SDS011;65486;53.144;18.134;2023-10-31T06:56:11;12.50;;;5.00;;
76597;SDS011;65486;53.144;18.134;2023-10-31T06:58:45;12.80;;;5.70;;
76597;SDS011;65486;53.144;18.134;2023-10-31T07:01:14;10.20;;;4.90;;
76597;SDS011;65486;53.144;18.134;2023-10-31T07:03:53;12.10;;;5.50;;
76597;SDS011;65486;53.144;18.134;2023-10-31T07:06:21;10.30;;;6.00;;
76597;SDS011;65486;53.144;18.134;2023-10-31T07:08:49;10.50;;;5.50;;
76597;SDS011;65486;53.144;18.134;2023-10-31T07:11:20;11.60;;;5.60;;
76597;SDS011;65486;53.144;18.134;2023-10-31T07:13:48;12.10;;;6.50;;
76597;SDS011;65486;53.144;18.134;2023-10-31T07:16:24;14.40;;;6.70;;
76597;SDS011;65486;53.144;18.134;2023-10-31T07:18:54;9.90;;;5.60;;
76597;SDS011;65486;53.144;18.134;2023-10-31T07:21:25;12.30;;;6.90;;
76597;SDS011;65486;53.144;18.134;2023-10-31T07:23:52;13.50;;;6.50;;
76597;SDS011;65486;53.144;18.134;2023-10-31T07:26:19;13.00;;;6.70;;
76597;SDS011;65486;53.144;18.134;2023-10-31T07:28:49;13.70;;;7.20;;
76597;SDS011;65486;53.144;18.134;2023-10-31T07:31:17;15.50;;;6.40;;
76597;SDS011;65486;53.144;18.134;2023-10-31T07:33:48;15.40;;;6.30;;
76597;SDS011;65486;53.144;18.134;2023-10-31T07:36:14;16.30;;;6.30;;
76597;SDS011;65486;53.144;18.134;2023-10-31T07:38:43;15.00;;;7.10;;
76597;SDS011;65486;53.144;18.134;2023-10-31T07:41:10;16.70;;;7.10;;
76597;SDS011;65486;53.144;18.134;2023-10-31T07:43:38;16.10;;;6.50;;
76597;SDS011;65486;53.144;18.134;2023-10-31T07:46:05;18.00;;;6.30;;
76597;SDS011;65486;53.144;18.134;2023-10-31T07:48:31;13.80;;;6.00;;
76597;SDS011;65486;53.144;18.134;2023-10-31T07:51:03;13.10;;;6.40;;
76597;SDS011;65486;53.144;18.134;2023-10-31T07:53:31;13.10;;;6.20;;
76597;SDS011;65486;53.144;18.134;2023-10-31T07:55:57;17.00;;;6.40;;
76597;SDS011;65486;53.144;18.134;2023-10-31T07:58:28;16.30;;;6.50;;
76597;SDS011;65486;53.144;18.134;2023-10-31T08:00:56;13.50;;;6.10;;
76597;SDS011;65486;53.144;18.134;2023-10-31T08:03:26;14.60;;;6.70;;
76597;SDS011;65486;53.144;18.134;2023-10-31T08:05:59;14.10;;;6.40;;
76597;SDS011;65486;53.144;18.134;2023-10-31T08:08:26;13.20;;;6.30;;
76597;SDS011;65486;53.144;18.134;2023-10-31T08:11:08;14.50;;;6.40;;
76597;SDS011;65486;53.144;18.134;2023-10-31T08:13:49;16.10;;;6.60;;
76597;SDS011;65486;53.144;18.134;2023-10-31T08:16:17;14.40;;;6.60;;
76597;SDS011;65486;53.144;18.134;2023-10-31T08:18:49;14.70;;;6.20;;
76597;SDS011;65486;53.144;18.134;2023-10-31T08:21:16;14.60;;;6.70;;
76597;SDS011;65486;53.144;18.134;2023-10-31T08:23:42;14.20;;;6.40;;
76597;SDS011;65486;53.144;18.134;2023-10-31T08:26:13;10.00;;;4.00;;
76597;SDS011;65486;53.144;18.134;2023-10-31T08:28:40;16.00;;;6.80;;
76597;SDS011;65486;53.144;18.134;2023-10-31T08:31:07;13.50;;;7.20;;
76597;SDS011;65486;53.144;18.134;2023-10-31T08:33:33;14.10;;;6.80;;
76597;SDS011;65486;53.144;18.134;2023-10-31T08:36:05;13.40;;;6.70;;
76597;SDS011;65486;53.144;18.134;2023-10-31T08:38:33;10.70;;;5.10;;
76597;SDS011;65486;53.144;18.134;2023-10-31T08:40:59;12.60;;;6.20;;
76597;SDS011;65486;53.144;18.134;2023-10-31T08:43:27;13.10;;;6.40;;
76597;SDS011;65486;53.144;18.134;2023-10-31T08:45:56;14.10;;;6.60;;
76597;SDS011;65486;53.144;18.134;2023-10-31T08:48:24;13.80;;;6.90;;
76597;SDS011;65486;53.144;18.134;2023-10-31T08:50:52;11.00;;;5.50;;
76597;SDS011;65486;53.144;18.134;2023-10-31T08:53:20;16.60;;;7.00;;
76597;SDS011;65486;53.144;18.134;2023-10-31T08:55:49;12.70;;;7.40;;
76597;SDS011;65486;53.144;18.134;2023-10-31T08:58:15;14.40;;;8.00;;
76597;SDS011;65486;53.144;18.134;2023-10-31T09:00:49;13.80;;;7.60;;
76597;SDS011;65486;53.144;18.134;2023-10-31T09:03:33;13.80;;;8.40;;
76597;SDS011;65486;53.144;18.134;2023-10-31T09:05:59;8.60;;;5.60;;
76597;SDS011;65486;53.144;18.134;2023-10-31T09:08:26;10.30;;;7.10;;
76597;SDS011;65486;53.144;18.134;2023-10-31T09:10:57;12.80;;;7.30;;
76597;SDS011;65486;53.144;18.134;2023-10-31T09:13:26;9.00;;;4.30;;
76597;SDS011;65486;53.144;18.134;2023-10-31T09:15:53;9.50;;;6.10;;
76597;SDS011;65486;53.144;18.134;2023-10-31T09:18:19;8.10;;;5.70;;
76597;SDS011;65486;53.144;18.134;2023-10-31T09:20:48;11.50;;;7.40;;
76597;SDS011;65486;53.144;18.134;2023-10-31T09:23:15;7.10;;;4.80;;
76597;SDS011;65486;53.144;18.134;2023-10-31T09:25:48;6.30;;;4.70;;
76597;SDS011;65486;53.144;18.134;2023-10-31T09:28:25;8.40;;;5.10;;
76597;SDS011;65486;53.144;18.134;2023-10-31T09:30:56;8.70;;;6.30;;
76597;SDS011;65486;53.144;18.134;2023-10-31T09:33:27;10.00;;;6.40;;
76597;SDS011;65486;53.144;18.134;2023-10-31T09:35:55;9.70;;;6.90;;
76597;SDS011;65486;53.144;18.134;2023-10-31T09:38:26;9.80;;;6.50;;
76597;SDS011;65486;53.144;18.134;2023-10-31T09:40:55;8.90;;;5.80;;
76597;SDS011;65486;53.144;18.134;2023-10-31T09:43:21;14.80;;;7.40;;
76597;SDS011;65486;53.144;18.134;2023-10-31T09:45:52;8.30;;;6.30;;
76597;SDS011;65486;53.144;18.134;2023-10-31T09:48:19;10.10;;;6.80;;
76597;SDS011;65486;53.144;18.134;2023-10-31T09:50:46;6.30;;;4.20;;
76597;SDS011;65486;53.144;18.134;2023-10-31T09:53:16;8.00;;;5.40;;
76597;SDS011;65486;53.144;18.134;2023-10-31T09:55:43;7.10;;;5.20;;
76597;SDS011;65486;53.144;18.134;2023-10-31T09:58:12;7.00;;;5.20;;
76597;SDS011;65486;53.144;18.134;2023-10-31T10:00:39;7.90;;;5.90;;
76597;SDS011;65486;53.144;18.134;2023-10-31T10:03:06;8.30;;;5.50;;
76597;SDS011;65486;53.144;18.134;2023-10-31T10:05:36;8.00;;;5.60;;
76597;SDS011;65486;53.144;18.134;2023-10-31T10:08:06;8.20;;;5.80;;
76597;SDS011;65486;53.144;18.134;2023-10-31T10:10:35;6.40;;;4.30;;
76597;SDS011;65486;53.144;18.134;2023-10-31T10:13:03;8.20;;;5.20;;
76597;SDS011;65486;53.144;18.134;2023-10-31T10:15:30;6.40;;;4.40;;
76597;SDS011;65486;53.144;18.134;2023-10-31T10:17:57;8.70;;;5.50;;
76597;SDS011;65486;53.144;18.134;2023-10-31T10:20:29;9.60;;;5.80;;
76597;SDS011;65486;53.144;18.134;2023-10-31T10:23:02;7.70;;;5.40;;
76597;SDS011;65486;53.144;18.134;2023-10-31T10:25:37;8.60;;;5.70;;
76597;SDS011;65486;53.144;18.134;2023-10-31T10:28:05;8.60;;;5.60;;
76597;SDS011;65486;53.144;18.134;2023-10-31T10:30:32;12.40;;;5.30;;
76597;SDS011;65486;53.144;18.134;2023-10-31T10:33:03;8.50;;;5.30;;
76597;SDS011;65486;53.144;18.134;2023-10-31T10:35:32;9.40;;;5.70;;
76597;SDS011;65486;53.144;18.134;2023-10-31T10:38:00;8.40;;;6.20;;
76597;SDS011;65486;53.144;18.134;2023-10-31T10:40:30;7.90;;;5.00;;
76597;SDS011;65486;53.144;18.134;2023-10-31T10:43:04;12.10;;;6.50;;
76597;SDS011;65486;53.144;18.134;2023-10-31T10:45:35;7.50;;;4.90;;
76597;SDS011;65486;53.144;18.134;2023-10-31T10:48:05;10.00;;;6.70;;
76597;SDS011;65486;53.144;18.134;2023-10-31T10:50:37;8.90;;;6.80;;
76597;SDS011;65486;53.144;18.134;2023-10-31T10:53:13;9.70;;;5.60;;
76597;SDS011;65486;53.144;18.134;2023-10-31T10:55:50;9.90;;;6.60;;
76597;SDS011;65486;53.144;18.134;2023-10-31T10:58:32;10.60;;;7.70;;
76597;SDS011;65486;53.144;18.134;2023-10-31T11:01:03;10.50;;;7.00;;
76597;SDS011;65486;53.144;18.134;2023-10-31T11:03:31;11.60;;;7.60;;
76597;SDS011;65486;53.144;18.134;2023-10-31T11:05:58;11.20;;;7.00;;
76597;SDS011;65486;53.144;18.134;2023-10-31T11:08:27;9.30;;;5.20;;
76597;SDS011;65486;53.144;18.134;2023-10-31T11:11:03;9.90;;;6.80;;
76597;SDS011;65486;53.144;18.134;2023-10-31T11:13:32;13.60;;;8.80;;
76597;SDS011;65486;53.144;18.134;2023-10-31T11:16:01;11.70;;;7.40;;
76597;SDS011;65486;53.144;18.134;2023-10-31T11:18:37;12.80;;;8.70;;
76597;SDS011;65486;53.144;18.134;2023-10-31T11:21:22;12.50;;;7.70;;
76597;SDS011;65486;53.144;18.134;2023-10-31T11:23:58;10.00;;;7.40;;
76597;SDS011;65486;53.144;18.134;2023-10-31T11:26:27;11.20;;;8.30;;
76597;SDS011;65486;53.144;18.134;2023-10-31T11:29:03;11.90;;;7.30;;
76597;SDS011;65486;53.144;18.134;2023-10-31T11:31:34;8.70;;;5.90;;
76597;SDS011;65486;53.144;18.134;2023-10-31T11:34:03;12.50;;;7.80;;
76597;SDS011;65486;53.144;18.134;2023-10-31T11:36:30;14.90;;;8.40;;
76597;SDS011;65486;53.144;18.134;2023-10-31T11:39:10;13.90;;;8.30;;
76597;SDS011;65486;53.144;18.134;2023-10-31T11:41:48;11.80;;;7.20;;
76597;SDS011;65486;53.144;18.134;2023-10-31T11:44:16;12.60;;;7.40;;
76597;SDS011;65486;53.144;18.134;2023-10-31T11:46:43;10.20;;;6.10;;
76597;SDS011;65486;53.144;18.134;2023-10-31T11:52:23;10.60;;;6.70;;
76597;SDS011;65486;53.144;18.134;2023-10-31T11:55:11;9.30;;;6.70;;
76597;SDS011;65486;53.144;18.134;2023-10-31T11:57:38;10.50;;;5.40;;
76597;SDS011;65486;53.144;18.134;2023-10-31T12:00:05;8.50;;;5.90;;
76597;SDS011;65486;53.144;18.134;2023-10-31T12:02:40;7.40;;;4.90;;
76597;SDS011;65486;53.144;18.134;2023-10-31T12:05:14;8.20;;;4.70;;
76597;SDS011;65486;53.144;18.134;2023-10-31T12:07:44;8.30;;;4.00;;
76597;SDS011;65486;53.144;18.134;2023-10-31T12:10:12;6.70;;;4.10;;
76597;SDS011;65486;53.144;18.134;2023-10-31T12:12:48;4.90;;;3.20;;
76597;SDS011;65486;53.144;18.134;2023-10-31T12:15:14;6.10;;;3.70;;
76597;SDS011;65486;53.144;18.134;2023-10-31T12:17:40;5.30;;;3.70;;
76597;SDS011;65486;53.144;18.134;2023-10-31T12:20:08;6.30;;;3.10;;
76597;SDS011;65486;53.144;18.134;2023-10-31T12:22:35;4.00;;;2.50;;
76597;SDS011;65486;53.144;18.134;2023-10-31T12:25:05;6.10;;;2.50;;
76597;SDS011;65486;53.144;18.134;2023-10-31T12:30:17;4.60;;;2.50;;
76597;SDS011;65486;53.144;18.134;2023-10-31T12:32:55;3.80;;;2.60;;
76597;SDS011;65486;53.144;18.134;2023-10-31T12:35:30;4.30;;;2.40;;
76597;SDS011;65486;53.144;18.134;2023-10-31T12:38:02;3.90;;;2.40;;
76597;SDS011;65486;53.144;18.134;2023-10-31T12:40:29;3.30;;;2.30;;
76597;SDS011;65486;53.144;18.134;2023-10-31T12:42:59;4.90;;;2.60;;
76597;SDS011;65486;53.144;18.134;2023-10-31T12:45:32;3.80;;;2.30;;
76597;SDS011;65486;53.144;18.134;2023-10-31T12:48:01;3.40;;;2.50;;
76597;SDS011;65486;53.144;18.134;2023-10-31T12:50:29;3.80;;;2.60;;
76597;SDS011;65486;53.144;18.134;2023-10-31T12:52:57;4.50;;;2.10;;
76597;SDS011;65486;53.144;18.134;2023-10-31T12:55:26;5.30;;;2.40;;
76597;SDS011;65486;53.144;18.134;2023-10-31T12:57:59;5.00;;;2.50;;
76597;SDS011;65486;53.144;18.134;2023-10-31T13:00:33;3.80;;;2.30;;
76597;SDS011;65486;53.144;18.134;2023-10-31T13:03:04;4.10;;;2.10;;
76597;SDS011;65486;53.144;18.134;2023-10-31T13:05:32;3.90;;;2.20;;
76597;SDS011;65486;53.144;18.134;2023-10-31T13:08:02;3.60;;;1.70;;
76597;SDS011;65486;53.144;18.134;2023-10-31T13:10:30;2.40;;;1.40;;
76597;SDS011;65486;53.144;18.134;2023-10-31T13:13:00;2.30;;;1.60;;
76597;SDS011;65486;53.144;18.134;2023-10-31T13:15:28;2.00;;;1.10;;
76597;SDS011;65486;53.144;18.134;2023-10-31T13:17:54;3.10;;;1.30;;
76597;SDS011;65486;53.144;18.134;2023-10-31T13:20:27;1.90;;;1.30;;
76597;SDS011;65486;53.144;18.134;2023-10-31T13:22:59;2.60;;;1.30;;
76597;SDS011;65486;53.144;18.134;2023-10-31T13:25:29;1.90;;;0.90;;
76597;SDS011;65486;53.144;18.134;2023-10-31T13:27:58;1.90;;;0.80;;
76597;SDS011;65486;53.144;18.134;2023-10-31T13:30:24;2.50;;;0.80;;
76597;SDS011;65486;53.144;18.134;2023-10-31T13:32:51;2.60;;;1.20;;
76597;SDS011;65486;53.144;18.134;2023-10-31T13:35:18;2.70;;;1.10;;
76597;SDS011;65486;53.144;18.134;2023-10-31T13:37:44;2.90;;;1.50;;
76597;SDS011;65486;53.144;18.134;2023-10-31T13:40:11;4.10;;;1.80;;
76597;SDS011;65486;53.144;18.134;2023-10-31T13:42:39;4.10;;;2.40;;
76597;SDS011;65486;53.144;18.134;2023-10-31T13:45:06;4.90;;;2.60;;
76597;SDS011;65486;53.144;18.134;2023-10-31T13:47:32;3.50;;;2.30;;
76597;SDS011;65486;53.144;18.134;2023-10-31T13:50:00;5.20;;;2.80;;
76597;SDS011;65486;53.144;18.134;2023-10-31T13:52:27;2.30;;;1.50;;
76597;SDS011;65486;53.144;18.134;2023-10-31T13:54:53;2.30;;;1.90;;
76597;SDS011;65486;53.144;18.134;2023-10-31T13:57:20;2.20;;;1.70;;
76597;SDS011;65486;53.144;18.134;2023-10-31T13:59:47;3.40;;;2.10;;
76597;SDS011;65486;53.144;18.134;2023-10-31T14:02:14;1.80;;;1.20;;
76597;SDS011;65486;53.144;18.134;2023-10-31T14:04:42;4.50;;;2.00;;
76597;SDS011;65486;53.144;18.134;2023-10-31T14:07:11;2.50;;;1.70;;
76597;SDS011;65486;53.144;18.134;2023-10-31T14:09:45;3.10;;;1.80;;
76597;SDS011;65486;53.144;18.134;2023-10-31T14:12:14;3.50;;;2.10;;
76597;SDS011;65486;53.144;18.134;2023-10-31T14:14:42;3.00;;;2.20;;
76597;SDS011;65486;53.144;18.134;2023-10-31T14:17:09;4.00;;;2.10;;
76597;SDS011;65486;53.144;18.134;2023-10-31T14:19:39;3.00;;;2.10;;
76597;SDS011;65486;53.144;18.134;2023-10-31T14:22:08;4.80;;;1.80;;
76597;SDS011;65486;53.144;18.134;2023-10-31T14:24:40;3.40;;;2.10;;
76597;SDS011;65486;53.144;18.134;2023-10-31T14:27:08;2.60;;;1.80;;
76597;SDS011;65486;53.144;18.134;2023-10-31T14:29:35;3.00;;;1.80;;
76597;SDS011;65486;53.144;18.134;2023-10-31T14:32:08;2.20;;;1.50;;
76597;SDS011;65486;53.144;18.134;2023-10-31T14:34:45;4.80;;;1.70;;
76597;SDS011;65486;53.144;18.134;2023-10-31T14:37:13;3.10;;;2.00;;
76597;SDS011;65486;53.144;18.134;2023-10-31T14:39:40;3.00;;;1.90;;